sensor_id;sensor_type;location;lat;lon;timestamp;temperature;humidity
17202;DHT22;8717;53.588;10.176;2023-05-19T00:00:18;6.00;99.90
17202;DHT22;8717;53.588;10.176;2023-05-19T00:02:46;6.00;99.90
17202;DHT22;8717;53.588;10.176;2023-05-19T00:05:15;6.00;99.90
17202;DHT22;8717;53.588;10.176;2023-05-19T00:07:43;6.00;99.90
17202;DHT22;8717;53.588;10.176;2023-05-19T00:10:11;6.00;99.90
17202;DHT22;8717;53.588;10.176;2023-05-19T00:12:39;5.90;99.90
17202;DHT22;8717;53.588;10.176;2023-05-19T00:15:08;5.90;99.90
17202;DHT22;8717;53.588;10.176;2023-05-19T00:17:35;5.90;99.90
17202;DHT22;8717;53.588;10.176;2023-05-19T00:20:03;5.90;99.90
17202;DHT22;8717;53.588;10.176;2023-05-19T00:22:33;5.90;99.90
17202;DHT22;8717;53.588;10.176;2023-05-19T00:25:01;5.90;99.90
17202;DHT22;8717;53.588;10.176;2023-05-19T00:27:28;5.90;99.90
17202;DHT22;8717;53.588;10.176;2023-05-19T00:29:55;5.90;99.90
17202;DHT22;8717;53.588;10.176;2023-05-19T00:32:21;5.90;99.90
17202;DHT22;8717;53.588;10.176;2023-05-19T00:34:48;5.80;99.90
17202;DHT22;8717;53.588;10.176;2023-05-19T00:37:16;5.80;99.90
17202;DHT22;8717;53.588;10.176;2023-05-19T00:39:44;5.70;99.90
17202;DHT22;8717;53.588;10.176;2023-05-19T00:42:11;5.70;99.90
17202;DHT22;8717;53.588;10.176;2023-05-19T00:44:40;5.70;99.90
17202;DHT22;8717;53.588;10.176;2023-05-19T00:47:07;5.70;99.90
17202;DHT22;8717;53.588;10.176;2023-05-19T00:49:34;5.70;99.90
17202;DHT22;8717;53.588;10.176;2023-05-19T00:52:02;5.70;99.90
17202;DHT22;8717;53.588;10.176;2023-05-19T00:54:32;5.70;99.90
17202;DHT22;8717;53.588;10.176;2023-05-19T00:57:01;5.70;99.90
17202;DHT22;8717;53.588;10.176;2023-05-19T00:59:29;5.60;99.90
17202;DHT22;8717;53.588;10.176;2023-05-19T01:01:56;5.60;99.90
17202;DHT22;8717;53.588;10.176;2023-05-19T01:04:23;5.60;99.90
17202;DHT22;8717;53.588;10.176;2023-05-19T01:06:50;5.60;99.90
17202;DHT22;8717;53.588;10.176;2023-05-19T01:09:19;5.60;99.90
17202;DHT22;8717;53.588;10.176;2023-05-19T01:11:46;5.60;99.90
17202;DHT22;8717;53.588;10.176;2023-05-19T01:14:14;5.60;99.90
17202;DHT22;8717;53.588;10.176;2023-05-19T01:16:45;5.60;99.90
17202;DHT22;8717;53.588;10.176;2023-05-19T01:19:22;5.60;99.90
17202;DHT22;8717;53.588;10.176;2023-05-19T01:22:17;5.60;99.90
17202;DHT22;8717;53.588;10.176;2023-05-19T01:25:24;5.60;99.90
17202;DHT22;8717;53.588;10.176;2023-05-19T01:28:19;5.60;99.90
17202;DHT22;8717;53.588;10.176;2023-05-19T01:30:52;5.60;99.90
17202;DHT22;8717;53.588;10.176;2023-05-19T01:33:20;5.60;99.90
17202;DHT22;8717;53.588;10.176;2023-05-19T01:35:48;5.60;99.90
17202;DHT22;8717;53.588;10.176;2023-05-19T01:38:18;5.60;99.90
17202;DHT22;8717;53.588;10.176;2023-05-19T01:40:47;5.70;99.90
17202;DHT22;8717;53.588;10.176;2023-05-19T01:43:17;5.70;99.90
17202;DHT22;8717;53.588;10.176;2023-05-19T01:45:44;5.60;99.90
17202;DHT22;8717;53.588;10.176;2023-05-19T01:48:13;5.70;99.90
17202;DHT22;8717;53.588;10.176;2023-05-19T01:50:41;5.70;99.90
17202;DHT22;8717;53.588;10.176;2023-05-19T01:53:08;5.70;99.90
17202;DHT22;8717;53.588;10.176;2023-05-19T01:55:41;5.70;99.90
17202;DHT22;8717;53.588;10.176;2023-05-19T01:58:16;5.70;99.90
17202;DHT22;8717;53.588;10.176;2023-05-19T02:00:51;5.70;99.90
17202;DHT22;8717;53.588;10.176;2023-05-19T02:03:29;5.80;99.90
17202;DHT22;8717;53.588;10.176;2023-05-19T02:06:06;5.80;99.90
17202;DHT22;8717;53.588;10.176;2023-05-19T02:08:40;5.80;99.90
17202;DHT22;8717;53.588;10.176;2023-05-19T02:11:13;5.80;99.90
17202;DHT22;8717;53.588;10.176;2023-05-19T02:13:43;5.80;99.90
17202;DHT22;8717;53.588;10.176;2023-05-19T02:16:12;5.80;99.90
17202;DHT22;8717;53.588;10.176;2023-05-19T02:18:41;5.90;99.90
17202;DHT22;8717;53.588;10.176;2023-05-19T02:21:09;5.90;99.90
17202;DHT22;8717;53.588;10.176;2023-05-19T02:23:39;5.90;99.90
17202;DHT22;8717;53.588;10.176;2023-05-19T02:26:06;5.90;99.90
17202;DHT22;8717;53.588;10.176;2023-05-19T02:28:33;5.90;99.90
17202;DHT22;8717;53.588;10.176;2023-05-19T02:31:01;6.00;99.90
17202;DHT22;8717;53.588;10.176;2023-05-19T02:33:29;6.00;99.90
17202;DHT22;8717;53.588;10.176;2023-05-19T02:35:58;6.00;99.90
17202;DHT22;8717;53.588;10.176;2023-05-19T02:38:24;6.00;99.90
17202;DHT22;8717;53.588;10.176;2023-05-19T02:40:52;6.00;99.90
17202;DHT22;8717;53.588;10.176;2023-05-19T02:43:18;6.10;99.90
17202;DHT22;8717;53.588;10.176;2023-05-19T02:45:45;6.10;99.90
17202;DHT22;8717;53.588;10.176;2023-05-19T02:48:12;6.10;99.90
17202;DHT22;8717;53.588;10.176;2023-05-19T02:50:39;6.10;99.90
17202;DHT22;8717;53.588;10.176;2023-05-19T02:53:07;6.20;99.90
17202;DHT22;8717;53.588;10.176;2023-05-19T02:55:34;6.20;99.90
17202;DHT22;8717;53.588;10.176;2023-05-19T02:58:01;6.20;99.90
17202;DHT22;8717;53.588;10.176;2023-05-19T03:00:28;6.20;99.90
17202;DHT22;8717;53.588;10.176;2023-05-19T03:02:55;6.20;99.90
17202;DHT22;8717;53.588;10.176;2023-05-19T03:05:27;6.20;99.90
17202;DHT22;8717;53.588;10.176;2023-05-19T03:07:54;6.20;99.90
17202;DHT22;8717;53.588;10.176;2023-05-19T03:10:22;6.20;99.90
17202;DHT22;8717;53.588;10.176;2023-05-19T03:12:49;6.20;99.90
17202;DHT22;8717;53.588;10.176;2023-05-19T03:15:16;6.20;99.90
17202;DHT22;8717;53.588;10.176;2023-05-19T03:17:44;6.20;99.90
17202;DHT22;8717;53.588;10.176;2023-05-19T03:20:11;6.20;99.90
17202;DHT22;8717;53.588;10.176;2023-05-19T03:22:40;6.20;99.90
17202;DHT22;8717;53.588;10.176;2023-05-19T03:25:07;6.20;99.90
17202;DHT22;8717;53.588;10.176;2023-05-19T03:27:35;6.20;99.90
17202;DHT22;8717;53.588;10.176;2023-05-19T03:30:02;6.20;99.90
17202;DHT22;8717;53.588;10.176;2023-05-19T03:32:29;6.20;99.90
17202;DHT22;8717;53.588;10.176;2023-05-19T03:34:58;6.20;99.90
17202;DHT22;8717;53.588;10.176;2023-05-19T03:37:26;6.20;99.90
17202;DHT22;8717;53.588;10.176;2023-05-19T03:39:53;6.20;99.90
17202;DHT22;8717;53.588;10.176;2023-05-19T03:42:20;6.20;99.90
17202;DHT22;8717;53.588;10.176;2023-05-19T03:44:49;6.30;99.90
17202;DHT22;8717;53.588;10.176;2023-05-19T03:47:16;6.30;99.90
17202;DHT22;8717;53.588;10.176;2023-05-19T03:49:49;6.30;99.90
17202;DHT22;8717;53.588;10.176;2023-05-19T03:52:35;6.30;99.90
17202;DHT22;8717;53.588;10.176;2023-05-19T03:55:11;6.30;99.90
17202;DHT22;8717;53.588;10.176;2023-05-19T03:57:39;6.40;99.90
17202;DHT22;8717;53.588;10.176;2023-05-19T04:00:12;6.40;99.90
17202;DHT22;8717;53.588;10.176;2023-05-19T04:02:39;6.40;99.90
17202;DHT22;8717;53.588;10.176;2023-05-19T04:05:07;6.40;99.90
17202;DHT22;8717;53.588;10.176;2023-05-19T04:07:34;6.40;99.90
17202;DHT22;8717;53.588;10.176;2023-05-19T04:10:03;6.40;99.90
17202;DHT22;8717;53.588;10.176;2023-05-19T04:12:30;6.50;99.90
17202;DHT22;8717;53.588;10.176;2023-05-19T04:14:57;6.50;99.90
17202;DHT22;8717;53.588;10.176;2023-05-19T04:17:25;6.50;99.90
17202;DHT22;8717;53.588;10.176;2023-05-19T04:19:54;6.60;99.90
17202;DHT22;8717;53.588;10.176;2023-05-19T04:22:21;6.60;99.90
17202;DHT22;8717;53.588;10.176;2023-05-19T04:24:48;6.70;99.90
17202;DHT22;8717;53.588;10.176;2023-05-19T04:27:15;6.80;99.90
17202;DHT22;8717;53.588;10.176;2023-05-19T04:29:43;6.80;99.90
17202;DHT22;8717;53.588;10.176;2023-05-19T04:32:10;6.90;99.90
17202;DHT22;8717;53.588;10.176;2023-05-19T04:34:43;7.00;99.90
17202;DHT22;8717;53.588;10.176;2023-05-19T04:37:13;7.10;99.90
17202;DHT22;8717;53.588;10.176;2023-05-19T04:39:41;7.20;99.90
17202;DHT22;8717;53.588;10.176;2023-05-19T04:42:10;7.20;99.90
17202;DHT22;8717;53.588;10.176;2023-05-19T04:44:38;7.30;99.90
17202;DHT22;8717;53.588;10.176;2023-05-19T04:47:06;7.40;99.90
17202;DHT22;8717;53.588;10.176;2023-05-19T04:49:33;7.40;99.90
17202;DHT22;8717;53.588;10.176;2023-05-19T04:52:07;7.50;99.90
17202;DHT22;8717;53.588;10.176;2023-05-19T04:54:37;7.50;99.90
17202;DHT22;8717;53.588;10.176;2023-05-19T04:57:05;7.60;99.90
17202;DHT22;8717;53.588;10.176;2023-05-19T04:59:35;7.70;99.90
17202;DHT22;8717;53.588;10.176;2023-05-19T05:02:05;7.80;99.90
17202;DHT22;8717;53.588;10.176;2023-05-19T05:04:33;7.80;99.90
17202;DHT22;8717;53.588;10.176;2023-05-19T05:07:01;7.90;99.90
17202;DHT22;8717;53.588;10.176;2023-05-19T05:09:29;8.10;99.90
17202;DHT22;8717;53.588;10.176;2023-05-19T05:11:59;8.10;99.90
17202;DHT22;8717;53.588;10.176;2023-05-19T05:14:27;8.20;99.90
17202;DHT22;8717;53.588;10.176;2023-05-19T05:16:54;8.20;99.90
17202;DHT22;8717;53.588;10.176;2023-05-19T05:19:23;8.30;99.90
17202;DHT22;8717;53.588;10.176;2023-05-19T05:21:51;8.40;99.90
17202;DHT22;8717;53.588;10.176;2023-05-19T05:24:19;8.50;99.90
17202;DHT22;8717;53.588;10.176;2023-05-19T05:26:52;8.60;99.90
17202;DHT22;8717;53.588;10.176;2023-05-19T05:29:19;8.60;99.90
17202;DHT22;8717;53.588;10.176;2023-05-19T05:31:46;8.70;99.90
17202;DHT22;8717;53.588;10.176;2023-05-19T05:34:13;8.80;99.90
17202;DHT22;8717;53.588;10.176;2023-05-19T05:36:41;8.90;99.90
17202;DHT22;8717;53.588;10.176;2023-05-19T05:39:08;9.00;99.90
17202;DHT22;8717;53.588;10.176;2023-05-19T05:41:36;9.10;99.90
17202;DHT22;8717;53.588;10.176;2023-05-19T05:44:10;9.20;99.90
17202;DHT22;8717;53.588;10.176;2023-05-19T05:46:39;9.30;99.90
17202;DHT22;8717;53.588;10.176;2023-05-19T05:49:06;9.30;99.90
17202;DHT22;8717;53.588;10.176;2023-05-19T05:51:34;9.40;99.90
17202;DHT22;8717;53.588;10.176;2023-05-19T05:54:01;9.50;99.90
17202;DHT22;8717;53.588;10.176;2023-05-19T05:56:35;9.60;99.90
17202;DHT22;8717;53.588;10.176;2023-05-19T05:59:04;9.70;99.90
17202;DHT22;8717;53.588;10.176;2023-05-19T06:01:33;9.70;99.90
17202;DHT22;8717;53.588;10.176;2023-05-19T06:04:00;9.90;99.90
17202;DHT22;8717;53.588;10.176;2023-05-19T06:06:28;9.90;99.90
17202;DHT22;8717;53.588;10.176;2023-05-19T06:08:55;10.10;99.90
17202;DHT22;8717;53.588;10.176;2023-05-19T06:11:23;10.20;99.90
17202;DHT22;8717;53.588;10.176;2023-05-19T06:13:50;10.30;99.90
17202;DHT22;8717;53.588;10.176;2023-05-19T06:16:36;10.40;99.90
17202;DHT22;8717;53.588;10.176;2023-05-19T06:19:03;10.60;99.90
17202;DHT22;8717;53.588;10.176;2023-05-19T06:21:30;10.70;99.90
17202;DHT22;8717;53.588;10.176;2023-05-19T06:23:57;10.80;99.90
17202;DHT22;8717;53.588;10.176;2023-05-19T06:26:25;10.90;99.90
17202;DHT22;8717;53.588;10.176;2023-05-19T06:28:51;11.00;99.90
17202;DHT22;8717;53.588;10.176;2023-05-19T06:31:19;11.10;99.90
17202;DHT22;8717;53.588;10.176;2023-05-19T06:33:52;11.20;99.90
17202;DHT22;8717;53.588;10.176;2023-05-19T06:36:19;11.40;99.90
17202;DHT22;8717;53.588;10.176;2023-05-19T06:38:47;11.50;99.90
17202;DHT22;8717;53.588;10.176;2023-05-19T06:41:14;11.70;99.90
17202;DHT22;8717;53.588;10.176;2023-05-19T06:43:41;11.90;99.90
17202;DHT22;8717;53.588;10.176;2023-05-19T06:46:12;12.20;99.90
17202;DHT22;8717;53.588;10.176;2023-05-19T06:48:39;12.40;99.90
17202;DHT22;8717;53.588;10.176;2023-05-19T06:51:08;12.50;99.90
17202;DHT22;8717;53.588;10.176;2023-05-19T06:53:36;12.60;99.90
17202;DHT22;8717;53.588;10.176;2023-05-19T06:56:07;12.80;99.90
17202;DHT22;8717;53.588;10.176;2023-05-19T06:58:35;13.00;99.90
17202;DHT22;8717;53.588;10.176;2023-05-19T07:01:04;13.20;99.80
17202;DHT22;8717;53.588;10.176;2023-05-19T07:03:37;13.50;99.90
17202;DHT22;8717;53.588;10.176;2023-05-19T07:06:04;13.80;99.80
17202;DHT22;8717;53.588;10.176;2023-05-19T07:08:32;14.30;99.50
17202;DHT22;8717;53.588;10.176;2023-05-19T07:11:01;14.90;99.20
17202;DHT22;8717;53.588;10.176;2023-05-19T07:13:28;15.70;98.60
17202;DHT22;8717;53.588;10.176;2023-05-19T07:15:56;16.40;97.40
17202;DHT22;8717;53.588;10.176;2023-05-19T07:18:24;17.10;96.40
17202;DHT22;8717;53.588;10.176;2023-05-19T07:20:51;17.70;95.00
17202;DHT22;8717;53.588;10.176;2023-05-19T07:23:19;18.20;93.70
17202;DHT22;8717;53.588;10.176;2023-05-19T07:25:48;18.60;92.90
17202;DHT22;8717;53.588;10.176;2023-05-19T07:28:15;18.80;91.40
17202;DHT22;8717;53.588;10.176;2023-05-19T07:30:41;19.10;91.20
17202;DHT22;8717;53.588;10.176;2023-05-19T07:33:08;19.30;90.90
17202;DHT22;8717;53.588;10.176;2023-05-19T07:35:35;19.60;90.80
17202;DHT22;8717;53.588;10.176;2023-05-19T07:38:02;20.00;90.20
17202;DHT22;8717;53.588;10.176;2023-05-19T07:40:28;20.40;88.70
17202;DHT22;8717;53.588;10.176;2023-05-19T07:42:56;20.80;87.70
17202;DHT22;8717;53.588;10.176;2023-05-19T07:45:23;21.30;85.30
17202;DHT22;8717;53.588;10.176;2023-05-19T07:47:50;21.60;82.80
17202;DHT22;8717;53.588;10.176;2023-05-19T07:50:16;21.80;81.90
17202;DHT22;8717;53.588;10.176;2023-05-19T07:52:43;22.00;79.30
17202;DHT22;8717;53.588;10.176;2023-05-19T07:55:10;22.00;78.40
17202;DHT22;8717;53.588;10.176;2023-05-19T07:57:38;21.80;76.60
17202;DHT22;8717;53.588;10.176;2023-05-19T08:00:07;21.80;76.80
17202;DHT22;8717;53.588;10.176;2023-05-19T08:02:37;21.70;76.40
17202;DHT22;8717;53.588;10.176;2023-05-19T08:05:04;21.70;75.80
17202;DHT22;8717;53.588;10.176;2023-05-19T08:07:31;21.70;75.70
17202;DHT22;8717;53.588;10.176;2023-05-19T08:09:58;21.80;75.40
17202;DHT22;8717;53.588;10.176;2023-05-19T08:12:24;21.80;74.30
17202;DHT22;8717;53.588;10.176;2023-05-19T08:14:51;21.80;73.10
17202;DHT22;8717;53.588;10.176;2023-05-19T08:17:19;21.70;73.20
17202;DHT22;8717;53.588;10.176;2023-05-19T08:19:46;21.70;72.20
17202;DHT22;8717;53.588;10.176;2023-05-19T08:22:13;21.70;73.10
17202;DHT22;8717;53.588;10.176;2023-05-19T08:24:39;21.80;74.10
17202;DHT22;8717;53.588;10.176;2023-05-19T08:27:07;22.00;73.00
17202;DHT22;8717;53.588;10.176;2023-05-19T08:29:34;22.30;73.00
17202;DHT22;8717;53.588;10.176;2023-05-19T08:32:01;22.60;71.00
17202;DHT22;8717;53.588;10.176;2023-05-19T08:34:29;22.80;69.70
17202;DHT22;8717;53.588;10.176;2023-05-19T08:36:56;22.90;69.10
17202;DHT22;8717;53.588;10.176;2023-05-19T08:39:24;23.10;69.20
17202;DHT22;8717;53.588;10.176;2023-05-19T08:41:51;23.40;69.20
17202;DHT22;8717;53.588;10.176;2023-05-19T08:44:18;23.70;68.70
17202;DHT22;8717;53.588;10.176;2023-05-19T08:46:46;24.10;68.70
17202;DHT22;8717;53.588;10.176;2023-05-19T08:49:13;24.50;67.70
17202;DHT22;8717;53.588;10.176;2023-05-19T08:51:52;24.90;65.40
17202;DHT22;8717;53.588;10.176;2023-05-19T08:54:24;25.20;62.30
17202;DHT22;8717;53.588;10.176;2023-05-19T08:56:54;25.40;60.90
17202;DHT22;8717;53.588;10.176;2023-05-19T08:59:21;25.40;59.80
17202;DHT22;8717;53.588;10.176;2023-05-19T09:01:49;25.30;59.90
17202;DHT22;8717;53.588;10.176;2023-05-19T09:04:16;25.20;59.20
17202;DHT22;8717;53.588;10.176;2023-05-19T09:06:42;25.20;59.10
17202;DHT22;8717;53.588;10.176;2023-05-19T09:09:11;25.10;59.30
17202;DHT22;8717;53.588;10.176;2023-05-19T09:11:38;25.20;58.70
17202;DHT22;8717;53.588;10.176;2023-05-19T09:14:04;25.30;58.90
17202;DHT22;8717;53.588;10.176;2023-05-19T09:16:31;25.50;58.30
17202;DHT22;8717;53.588;10.176;2023-05-19T09:18:58;25.60;58.00
17202;DHT22;8717;53.588;10.176;2023-05-19T09:21:26;25.80;58.10
17202;DHT22;8717;53.588;10.176;2023-05-19T09:23:55;26.00;56.50
17202;DHT22;8717;53.588;10.176;2023-05-19T09:26:23;26.10;56.00
17202;DHT22;8717;53.588;10.176;2023-05-19T09:28:50;26.10;55.30
17202;DHT22;8717;53.588;10.176;2023-05-19T09:31:17;25.90;53.70
17202;DHT22;8717;53.588;10.176;2023-05-19T09:33:43;25.70;53.70
17202;DHT22;8717;53.588;10.176;2023-05-19T09:36:10;25.40;54.60
17202;DHT22;8717;53.588;10.176;2023-05-19T09:38:37;25.20;54.20
17202;DHT22;8717;53.588;10.176;2023-05-19T09:41:05;25.10;54.70
17202;DHT22;8717;53.588;10.176;2023-05-19T09:43:34;25.00;54.90
17202;DHT22;8717;53.588;10.176;2023-05-19T09:46:03;25.10;54.90
17202;DHT22;8717;53.588;10.176;2023-05-19T09:48:30;25.30;55.20
17202;DHT22;8717;53.588;10.176;2023-05-19T09:50:56;25.50;55.80
17202;DHT22;8717;53.588;10.176;2023-05-19T09:53:23;25.70;55.70
17202;DHT22;8717;53.588;10.176;2023-05-19T09:55:54;25.80;54.80
17202;DHT22;8717;53.588;10.176;2023-05-19T09:58:22;25.90;53.30
17202;DHT22;8717;53.588;10.176;2023-05-19T10:00:51;25.70;53.10
17202;DHT22;8717;53.588;10.176;2023-05-19T10:03:20;25.50;52.90
17202;DHT22;8717;53.588;10.176;2023-05-19T10:05:48;25.30;52.90
17202;DHT22;8717;53.588;10.176;2023-05-19T10:08:16;24.90;53.20
17202;DHT22;8717;53.588;10.176;2023-05-19T10:10:44;24.60;53.80
17202;DHT22;8717;53.588;10.176;2023-05-19T10:13:12;24.50;53.40
17202;DHT22;8717;53.588;10.176;2023-05-19T10:15:40;24.40;54.20
17202;DHT22;8717;53.588;10.176;2023-05-19T10:18:09;24.40;53.60
17202;DHT22;8717;53.588;10.176;2023-05-19T10:20:36;24.50;53.90
17202;DHT22;8717;53.588;10.176;2023-05-19T10:23:03;24.70;53.40
17202;DHT22;8717;53.588;10.176;2023-05-19T10:25:31;24.80;53.10
17202;DHT22;8717;53.588;10.176;2023-05-19T10:28:02;25.00;53.70
17202;DHT22;8717;53.588;10.176;2023-05-19T10:30:34;25.30;53.70
17202;DHT22;8717;53.588;10.176;2023-05-19T10:33:04;25.60;53.50
17202;DHT22;8717;53.588;10.176;2023-05-19T10:36:04;25.80;51.80
17202;DHT22;8717;53.588;10.176;2023-05-19T10:38:40;26.00;51.70
17202;DHT22;8717;53.588;10.176;2023-05-19T10:41:13;26.00;51.30
17202;DHT22;8717;53.588;10.176;2023-05-19T10:43:50;26.00;51.30
17202;DHT22;8717;53.588;10.176;2023-05-19T10:46:23;26.00;50.70
17202;DHT22;8717;53.588;10.176;2023-05-19T10:48:50;26.10;50.70
17202;DHT22;8717;53.588;10.176;2023-05-19T10:51:19;26.20;51.10
17202;DHT22;8717;53.588;10.176;2023-05-19T10:53:45;26.30;50.70
17202;DHT22;8717;53.588;10.176;2023-05-19T10:56:27;26.30;49.80
17202;DHT22;8717;53.588;10.176;2023-05-19T10:58:58;26.30;49.40
17202;DHT22;8717;53.588;10.176;2023-05-19T11:01:30;26.10;49.00
17202;DHT22;8717;53.588;10.176;2023-05-19T11:04:03;26.00;49.50
17202;DHT22;8717;53.588;10.176;2023-05-19T11:06:32;25.80;49.50
17202;DHT22;8717;53.588;10.176;2023-05-19T11:09:03;25.70;49.50
17202;DHT22;8717;53.588;10.176;2023-05-19T11:11:44;25.70;49.00
17202;DHT22;8717;53.588;10.176;2023-05-19T11:14:11;25.60;49.50
17202;DHT22;8717;53.588;10.176;2023-05-19T11:16:39;25.60;49.10
17202;DHT22;8717;53.588;10.176;2023-05-19T11:19:07;25.50;48.90
17202;DHT22;8717;53.588;10.176;2023-05-19T11:21:46;25.30;49.50
17202;DHT22;8717;53.588;10.176;2023-05-19T11:24:33;25.30;49.90
17202;DHT22;8717;53.588;10.176;2023-05-19T11:27:19;25.30;49.60
17202;DHT22;8717;53.588;10.176;2023-05-19T11:29:47;25.50;49.90
17202;DHT22;8717;53.588;10.176;2023-05-19T11:32:14;25.70;49.80
17202;DHT22;8717;53.588;10.176;2023-05-19T11:34:42;25.80;49.80
17202;DHT22;8717;53.588;10.176;2023-05-19T11:37:11;25.90;48.60
17202;DHT22;8717;53.588;10.176;2023-05-19T11:39:38;25.90;49.10
17202;DHT22;8717;53.588;10.176;2023-05-19T11:42:05;25.80;49.30
17202;DHT22;8717;53.588;10.176;2023-05-19T11:44:32;25.80;49.60
17202;DHT22;8717;53.588;10.176;2023-05-19T11:46:59;25.90;50.10
17202;DHT22;8717;53.588;10.176;2023-05-19T11:49:27;26.20;50.30
17202;DHT22;8717;53.588;10.176;2023-05-19T11:51:55;26.30;48.80
17202;DHT22;8717;53.588;10.176;2023-05-19T11:54:28;26.50;48.80
17202;DHT22;8717;53.588;10.176;2023-05-19T11:56:56;26.40;48.70
17202;DHT22;8717;53.588;10.176;2023-05-19T11:59:28;26.20;48.20
17202;DHT22;8717;53.588;10.176;2023-05-19T12:01:55;26.10;48.20
17202;DHT22;8717;53.588;10.176;2023-05-19T12:04:22;25.90;48.00
17202;DHT22;8717;53.588;10.176;2023-05-19T12:06:48;25.70;47.80
17202;DHT22;8717;53.588;10.176;2023-05-19T12:09:17;25.50;47.30
17202;DHT22;8717;53.588;10.176;2023-05-19T12:11:46;25.30;48.40
17202;DHT22;8717;53.588;10.176;2023-05-19T12:14:13;25.20;48.80
17202;DHT22;8717;53.588;10.176;2023-05-19T12:16:40;25.30;49.70
17202;DHT22;8717;53.588;10.176;2023-05-19T12:19:07;25.30;49.40
17202;DHT22;8717;53.588;10.176;2023-05-19T12:21:35;25.40;49.10
17202;DHT22;8717;53.588;10.176;2023-05-19T12:24:02;25.50;48.80
17202;DHT22;8717;53.588;10.176;2023-05-19T12:26:30;25.50;48.90
17202;DHT22;8717;53.588;10.176;2023-05-19T12:28:58;25.60;48.00
17202;DHT22;8717;53.588;10.176;2023-05-19T12:31:25;25.60;48.60
17202;DHT22;8717;53.588;10.176;2023-05-19T12:33:51;25.60;48.10
17202;DHT22;8717;53.588;10.176;2023-05-19T12:36:18;25.70;48.30
17202;DHT22;8717;53.588;10.176;2023-05-19T12:38:47;25.70;47.60
17202;DHT22;8717;53.588;10.176;2023-05-19T12:41:18;25.60;46.70
17202;DHT22;8717;53.588;10.176;2023-05-19T12:43:45;25.40;47.40
17202;DHT22;8717;53.588;10.176;2023-05-19T12:46:13;25.30;47.80
17202;DHT22;8717;53.588;10.176;2023-05-19T12:48:42;25.20;47.10
17202;DHT22;8717;53.588;10.176;2023-05-19T12:51:09;25.00;47.70
17202;DHT22;8717;53.588;10.176;2023-05-19T12:53:36;24.80;47.40
17202;DHT22;8717;53.588;10.176;2023-05-19T12:56:10;24.60;48.10
17202;DHT22;8717;53.588;10.176;2023-05-19T12:58:37;24.40;47.70
17202;DHT22;8717;53.588;10.176;2023-05-19T13:01:05;24.10;47.80
17202;DHT22;8717;53.588;10.176;2023-05-19T13:03:38;23.90;48.10
17202;DHT22;8717;53.588;10.176;2023-05-19T13:06:06;23.70;48.00
17202;DHT22;8717;53.588;10.176;2023-05-19T13:08:34;23.60;48.60
17202;DHT22;8717;53.588;10.176;2023-05-19T13:11:00;23.60;49.70
17202;DHT22;8717;53.588;10.176;2023-05-19T13:13:27;23.60;49.40
17202;DHT22;8717;53.588;10.176;2023-05-19T13:15:54;23.80;49.20
17202;DHT22;8717;53.588;10.176;2023-05-19T13:18:21;23.80;48.70
17202;DHT22;8717;53.588;10.176;2023-05-19T13:20:49;23.90;48.40
17202;DHT22;8717;53.588;10.176;2023-05-19T13:23:17;23.80;48.60
17202;DHT22;8717;53.588;10.176;2023-05-19T13:25:44;23.70;48.30
17202;DHT22;8717;53.588;10.176;2023-05-19T13:28:11;23.60;48.70
17202;DHT22;8717;53.588;10.176;2023-05-19T13:30:39;23.50;48.70
17202;DHT22;8717;53.588;10.176;2023-05-19T13:33:06;23.50;49.00
17202;DHT22;8717;53.588;10.176;2023-05-19T13:35:33;23.50;49.20
17202;DHT22;8717;53.588;10.176;2023-05-19T13:38:03;23.60;49.00
17202;DHT22;8717;53.588;10.176;2023-05-19T13:40:30;23.70;48.40
17202;DHT22;8717;53.588;10.176;2023-05-19T13:42:59;23.70;48.20
17202;DHT22;8717;53.588;10.176;2023-05-19T13:45:26;23.80;48.30
17202;DHT22;8717;53.588;10.176;2023-05-19T13:47:53;23.80;48.80
17202;DHT22;8717;53.588;10.176;2023-05-19T13:50:19;23.90;48.80
17202;DHT22;8717;53.588;10.176;2023-05-19T13:52:46;24.00;48.80
17202;DHT22;8717;53.588;10.176;2023-05-19T13:55:14;24.10;48.10
17202;DHT22;8717;53.588;10.176;2023-05-19T13:57:41;24.10;48.50
17202;DHT22;8717;53.588;10.176;2023-05-19T14:00:08;24.10;48.70
17202;DHT22;8717;53.588;10.176;2023-05-19T14:02:38;24.10;48.50
17202;DHT22;8717;53.588;10.176;2023-05-19T14:05:06;24.20;48.50
17202;DHT22;8717;53.588;10.176;2023-05-19T14:07:33;24.20;48.50
17202;DHT22;8717;53.588;10.176;2023-05-19T14:10:00;24.30;48.80
17202;DHT22;8717;53.588;10.176;2023-05-19T14:12:28;24.30;48.50
17202;DHT22;8717;53.588;10.176;2023-05-19T14:14:55;24.40;48.10
17202;DHT22;8717;53.588;10.176;2023-05-19T14:17:21;24.40;47.80
17202;DHT22;8717;53.588;10.176;2023-05-19T14:19:48;24.30;47.70
17202;DHT22;8717;53.588;10.176;2023-05-19T14:22:15;24.10;47.80
17202;DHT22;8717;53.588;10.176;2023-05-19T14:24:42;24.00;48.00
17202;DHT22;8717;53.588;10.176;2023-05-19T14:27:09;23.90;48.50
17202;DHT22;8717;53.588;10.176;2023-05-19T14:29:37;23.90;48.70
17202;DHT22;8717;53.588;10.176;2023-05-19T14:32:04;23.90;49.00
17202;DHT22;8717;53.588;10.176;2023-05-19T14:34:31;23.90;48.50
17202;DHT22;8717;53.588;10.176;2023-05-19T14:36:59;23.90;48.60
17202;DHT22;8717;53.588;10.176;2023-05-19T14:39:26;23.70;49.20
17202;DHT22;8717;53.588;10.176;2023-05-19T14:41:53;23.50;49.40
17202;DHT22;8717;53.588;10.176;2023-05-19T14:44:20;23.30;49.60
17202;DHT22;8717;53.588;10.176;2023-05-19T14:46:48;23.10;49.90
17202;DHT22;8717;53.588;10.176;2023-05-19T14:49:15;22.80;50.20
17202;DHT22;8717;53.588;10.176;2023-05-19T14:51:41;22.60;50.40
17202;DHT22;8717;53.588;10.176;2023-05-19T14:54:08;22.50;50.70
17202;DHT22;8717;53.588;10.176;2023-05-19T14:56:35;22.30;50.90
17202;DHT22;8717;53.588;10.176;2023-05-19T14:59:01;22.20;51.10
17202;DHT22;8717;53.588;10.176;2023-05-19T15:01:29;22.00;51.40
17202;DHT22;8717;53.588;10.176;2023-05-19T15:03:57;21.90;51.90
17202;DHT22;8717;53.588;10.176;2023-05-19T15:06:24;21.70;52.10
17202;DHT22;8717;53.588;10.176;2023-05-19T15:08:50;21.60;52.60
17202;DHT22;8717;53.588;10.176;2023-05-19T15:11:17;21.50;52.60
17202;DHT22;8717;53.588;10.176;2023-05-19T15:13:44;21.50;52.90
17202;DHT22;8717;53.588;10.176;2023-05-19T15:16:10;21.50;53.00
17202;DHT22;8717;53.588;10.176;2023-05-19T15:18:37;21.40;53.10
17202;DHT22;8717;53.588;10.176;2023-05-19T15:21:05;21.30;53.10
17202;DHT22;8717;53.588;10.176;2023-05-19T15:23:32;21.20;53.30
17202;DHT22;8717;53.588;10.176;2023-05-19T15:25:58;21.10;53.40
17202;DHT22;8717;53.588;10.176;2023-05-19T15:28:25;21.00;53.60
17202;DHT22;8717;53.588;10.176;2023-05-19T15:30:52;21.00;54.00
17202;DHT22;8717;53.588;10.176;2023-05-19T15:33:18;20.90;54.20
17202;DHT22;8717;53.588;10.176;2023-05-19T15:35:45;20.80;54.40
17202;DHT22;8717;53.588;10.176;2023-05-19T15:38:17;20.70;54.60
17202;DHT22;8717;53.588;10.176;2023-05-19T15:40:44;20.70;54.90
17202;DHT22;8717;53.588;10.176;2023-05-19T15:43:11;20.60;55.10
17202;DHT22;8717;53.588;10.176;2023-05-19T15:45:37;20.60;55.40